Terminal Aerodrome Forecast
Issued by NWS Albuquerque, NM

Home | Current Version | Previous Version | Text Only | Print | Product List | Glossary On
Versions: 1 2 3 4 5 6 7 8 9 10 11 12 13 14 15
613
FTUS45 KABQ 240522
TAFABQ
TAF
KABQ 240522Z 2406/2506 VRB05KT P6SM VCSH BKN100
     FM240700 VRB05KT P6SM FEW120 SCT200
     FM242300 09015KT P6SM VCSH BKN100
     FM250100 12015KT P6SM VCTS BKN090CB
     FM250300 08011KT P6SM VCSH BKN100=

USA.gov is the U.S. government's official web portal to all federal, state and local government web resources and services.